Time;durP1;ratioP1;P1;durP2;ratioP2;P2;SDS_P1;SDS_P2;PMS_P1;PMS_P2;Temp;Humidity;BMP_temperature;BMP_pressure;BME280_temperature;BME280_humidity;BME280_pressure;Samples;Min_cycle;Max_cycle;Signal;HPM_P1;HPM_P2
2021/06/30 00:01:27;;;;;;;0.50;0.30;;;15.90;80.10;;;;;;4996048;28;20449;-75
2021/06/30 00:03:52;;;;;;;0.30;0.30;;;15.90;80.60;;;;;;4995892;28;20391;-75
2021/06/30 00:06:19;;;;;;;2.30;0.35;;;15.90;80.70;;;;;;4996228;28;20027;-77
2021/06/30 00:08:46;;;;;;;0.47;0.38;;;15.90;80.80;;;;;;4996073;28;20486;-78
2021/06/30 00:11:12;;;;;;;0.40;0.40;;;15.90;80.60;;;;;;4995878;28;20027;-75
2021/06/30 00:13:38;;;;;;;0.40;0.30;;;15.80;80.60;;;;;;4995592;28;20027;-75
2021/06/30 00:16:04;;;;;;;0.30;0.30;;;15.80;81.20;;;;;;4995833;28;20037;-75
2021/06/30 00:18:30;;;;;;;0.40;0.40;;;15.80;81.10;;;;;;4994507;28;20029;-76
2021/06/30 00:20:56;;;;;;;0.63;0.47;;;15.70;81.30;;;;;;4995894;28;20030;-76
2021/06/30 00:23:22;;;;;;;0.60;0.50;;;15.70;81.40;;;;;;4995431;28;20477;-76
2021/06/30 00:25:48;;;;;;;0.40;0.40;;;15.70;81.10;;;;;;4995634;28;20023;-76
2021/06/30 00:28:14;;;;;;;0.68;0.30;;;15.70;81.60;;;;;;4995388;28;20080;-75
2021/06/30 00:30:40;;;;;;;0.50;0.50;;;15.70;81.50;;;;;;4995385;28;20038;-75
2021/06/30 00:33:06;;;;;;;1.42;0.40;;;15.70;81.30;;;;;;4995586;28;20061;-76
2021/06/30 00:35:32;;;;;;;0.47;0.40;;;15.70;81.60;;;;;;4995521;28;20512;-76
2021/06/30 00:37:58;;;;;;;1.10;0.40;;;15.70;81.20;;;;;;4995234;28;20381;-75
2021/06/30 00:40:24;;;;;;;0.80;0.30;;;15.70;81.20;;;;;;4995387;28;20029;-76
2021/06/30 00:42:50;;;;;;;0.40;0.40;;;15.70;81.50;;;;;;4995192;28;20048;-76
2021/06/30 00:45:19;;;;;;;2.45;0.40;;;15.70;81.90;;;;;;4995465;28;20033;-75
2021/06/30 00:47:45;;;;;;;0.65;0.40;;;15.70;81.00;;;;;;4994982;28;20485;-75
2021/06/30 00:50:14;;;;;;;0.22;0.22;;;15.70;80.70;;;;;;4995073;28;20169;-75
2021/06/30 00:52:40;;;;;;;0.30;0.30;;;15.70;81.10;;;;;;4994835;28;20053;-76
2021/06/30 00:55:06;;;;;;;0.75;0.40;;;15.60;81.50;;;;;;4995312;28;20377;-76
2021/06/30 00:57:32;;;;;;;0.40;0.40;;;15.60;81.10;;;;;;4995109;28;20052;-75
2021/06/30 00:59:58;;;;;;;0.45;0.43;;;15.60;81.70;;;;;;4995265;28;20423;-75
2021/06/30 01:02:24;;;;;;;0.50;0.35;;;15.60;81.80;;;;;;4994674;28;20117;-75
2021/06/30 01:04:50;;;;;;;0.40;0.40;;;15.60;81.10;;;;;;4994867;28;20113;-75
2021/06/30 01:07:16;;;;;;;1.20;0.40;;;15.60;80.80;;;;;;4995106;28;20176;-76
2021/06/30 01:09:42;;;;;;;1.95;0.50;;;15.60;80.00;;;;;;4994649;28;20447;-74
2021/06/30 01:12:08;;;;;;;0.45;0.40;;;15.60;80.00;;;;;;4994690;28;20101;-74
2021/06/30 01:14:36;;;;;;;1.10;0.50;;;15.60;80.40;;;;;;4994561;28;20121;-74
2021/06/30 01:53:07;;;;;;;0.30;0.30;;;15.50;82.80;;;;;;5288961;23;20067;-74
2021/06/30 01:55:34;;;;;;;0.80;0.38;;;15.50;83.30;;;;;;4993616;28;20038;-74
2021/06/30 01:58:00;;;;;;;0.52;0.50;;;15.50;84.30;;;;;;4993901;28;20034;-76
2021/06/30 02:00:26;;;;;;;0.60;0.50;;;15.40;84.50;;;;;;4994055;28;20023;-76
2021/06/30 02:02:52;;;;;;;0.35;0.35;;;15.40;84.40;;;;;;4976010;28;20379;-75
2021/06/30 02:05:22;;;;;;;0.95;0.45;;;15.50;83.10;;;;;;4994005;28;20034;-75
2021/06/30 02:07:49;;;;;;;;;;;15.50;81.60;;;;;;4993915;28;20027;-75
2021/06/30 02:10:16;;;;;;;0.50;0.50;;;15.50;80.00;;;;;;4993781;28;19906;-75
2021/06/30 02:12:44;;;;;;;0.52;0.50;;;15.50;80.10;;;;;;4993694;28;20038;-75
2021/06/30 02:15:14;;;;;;;1.17;0.50;;;15.50;79.90;;;;;;4993712;28;20037;-75
2021/06/30 02:17:40;;;;;;;1.23;0.50;;;15.50;79.10;;;;;;4993387;28;20513;-75
2021/06/30 02:20:08;;;;;;;0.75;0.60;;;15.50;79.10;;;;;;4993387;28;20036;-75
2021/06/30 02:22:36;;;;;;;0.52;0.50;;;15.50;78.70;;;;;;4993284;28;20108;-75
2021/06/30 02:25:03;;;;;;;0.57;0.40;;;15.50;78.40;;;;;;4993129;28;20081;-75
2021/06/30 02:27:29;;;;;;;0.40;0.40;;;15.50;78.40;;;;;;4993623;28;20057;-75
2021/06/30 02:29:55;;;;;;;0.90;0.50;;;15.50;77.70;;;;;;4993171;28;20482;-75
2021/06/30 02:32:21;;;;;;;0.85;0.40;;;15.50;77.70;;;;;;4993505;28;20117;-74
2021/06/30 02:34:47;;;;;;;0.63;0.60;;;15.50;76.90;;;;;;4993469;28;20054;-74
2021/06/30 02:37:13;;;;;;;1.88;0.50;;;15.50;75.50;;;;;;4992936;28;20449;-75
2021/06/30 02:39:38;;;;;;;0.45;0.45;;;15.50;75.40;;;;;;4993396;28;20088;-75
2021/06/30 02:42:04;;;;;;;1.38;0.43;;;15.50;75.00;;;;;;4993107;28;20038;-74
2021/06/30 02:44:30;;;;;;;0.77;0.38;;;15.50;73.60;;;;;;4992988;28;20031;-75
2021/06/30 02:46:56;;;;;;;1.10;0.47;;;15.50;74.10;;;;;;4992808;28;20026;-74
2021/06/30 02:49:21;;;;;;;0.60;0.50;;;15.50;73.70;;;;;;4992788;28;20058;-74
2021/06/30 02:51:47;;;;;;;1.05;0.60;;;15.40;72.60;;;;;;4992711;28;20038;-74
2021/06/30 02:54:13;;;;;;;2.15;0.40;;;15.40;72.20;;;;;;4992965;28;20026;-75
2021/06/30 02:56:39;;;;;;;1.20;0.55;;;15.40;72.50;;;;;;4992811;28;20022;-74
2021/06/30 02:59:04;;;;;;;0.50;0.50;;;15.50;72.50;;;;;;4991742;28;20054;-74
2021/06/30 03:01:31;;;;;;;0.30;0.28;;;15.40;71.20;;;;;;4992961;28;20023;-75
2021/06/30 03:03:56;;;;;;;0.47;0.47;;;15.40;70.80;;;;;;4992690;28;20037;-74
2021/06/30 03:06:22;;;;;;;0.40;0.40;;;15.40;70.30;;;;;;4992834;28;20026;-77
2021/06/30 03:08:50;;;;;;;0.30;0.30;;;15.40;70.40;;;;;;4992794;28;20097;-77
2021/06/30 03:11:16;;;;;;;0.55;0.30;;;15.40;70.40;;;;;;4992980;28;20045;-77
2021/06/30 03:13:41;;;;;;;0.68;0.40;;;15.30;69.70;;;;;;4992575;28;20034;-77
2021/06/30 03:16:07;;;;;;;0.57;0.38;;;15.30;69.80;;;;;;4992823;28;20034;-77
2021/06/30 03:18:34;;;;;;;4.47;0.30;;;15.30;69.60;;;;;;4992823;28;20113;-77
2021/06/30 03:20:59;;;;;;;0.30;0.30;;;15.30;70.00;;;;;;4992408;28;20026;-76
2021/06/30 03:23:25;;;;;;;0.85;0.30;;;15.30;69.40;;;;;;4992746;28;20034;-76
2021/06/30 03:25:51;;;;;;;0.47;0.40;;;15.30;68.90;;;;;;4992527;28;20024;-76
2021/06/30 03:28:17;;;;;;;0.52;0.40;;;15.20;69.30;;;;;;4992353;28;20050;-76
2021/06/30 03:30:43;;;;;;;0.63;0.30;;;15.20;69.20;;;;;;4992524;28;20022;-76
2021/06/30 03:33:10;;;;;;;0.30;0.30;;;15.20;69.10;;;;;;4992269;28;20023;-76
2021/06/30 03:35:36;;;;;;;0.40;0.30;;;15.10;69.20;;;;;;4992734;28;20060;-76
2021/06/30 03:38:03;;;;;;;0.80;0.30;;;15.20;69.70;;;;;;4992236;28;20478;-75
2021/06/30 03:40:28;;;;;;;0.60;0.30;;;15.20;69.60;;;;;;4992694;28;20096;-76
2021/06/30 03:42:54;;;;;;;1.50;0.35;;;15.20;69.70;;;;;;4992269;28;20509;-76
2021/06/30 03:45:20;;;;;;;0.30;0.30;;;15.10;69.20;;;;;;4992325;28;20027;-76
2021/06/30 03:47:46;;;;;;;0.30;0.30;;;15.10;69.90;;;;;;4974900;28;20058;-76
2021/06/30 03:50:12;;;;;;;0.20;0.20;;;15.00;70.20;;;;;;4974850;28;20036;-76
2021/06/30 03:52:37;;;;;;;0.22;0.22;;;15.10;70.10;;;;;;4991953;28;20054;-74
2021/06/30 03:55:04;;;;;;;1.90;0.30;;;14.90;69.90;;;;;;4992405;28;20035;-75
2021/06/30 03:57:30;;;;;;;0.40;0.30;;;15.00;71.20;;;;;;4992154;28;20547;-76
2021/06/30 03:59:56;;;;;;;1.05;0.20;;;14.90;71.20;;;;;;4992285;28;20475;-74
2021/06/30 04:02:22;;;;;;;1.55;0.30;;;14.90;70.70;;;;;;4992048;28;20034;-75
2021/06/30 04:04:48;;;;;;;0.35;0.30;;;14.90;70.20;;;;;;4992195;28;20026;-75
2021/06/30 04:07:14;;;;;;;0.85;0.22;;;14.80;70.40;;;;;;4991978;28;20026;-75
2021/06/30 04:09:40;;;;;;;0.80;0.40;;;14.90;71.10;;;;;;4993755;28;20037;-75
2021/06/30 04:12:06;;;;;;;0.38;0.22;;;14.90;71.20;;;;;;4995933;28;20038;-75
2021/06/30 04:14:32;;;;;;;0.35;0.30;;;14.90;71.60;;;;;;4995662;28;20030;-75
2021/06/30 04:16:58;;;;;;;0.22;0.20;;;15.00;71.40;;;;;;4995655;28;20037;-75
2021/06/30 04:19:24;;;;;;;0.55;0.40;;;15.00;71.70;;;;;;4995511;28;20034;-75
2021/06/30 04:21:50;;;;;;;0.20;0.20;;;14.90;71.50;;;;;;4995622;28;20042;-75
2021/06/30 04:24:16;;;;;;;0.70;0.30;;;14.90;71.90;;;;;;4995716;28;20050;-75
2021/06/30 04:26:42;;;;;;;0.38;0.30;;;14.80;71.30;;;;;;4995954;28;20655;-75
2021/06/30 04:29:09;;;;;;;4.78;0.32;;;14.80;71.20;;;;;;4995336;28;20106;-75
2021/06/30 04:31:35;;;;;;;1.38;0.30;;;14.70;71.40;;;;;;4995734;28;20052;-75
2021/06/30 04:34:01;;;;;;;1.38;0.30;;;14.80;71.70;;;;;;4995318;28;20072;-76
2021/06/30 04:36:27;;;;;;;1.20;0.30;;;14.80;71.40;;;;;;4995611;28;20436;-75
2021/06/30 04:38:53;;;;;;;2.28;0.30;;;14.80;71.60;;;;;;4995248;28;20023;-75
2021/06/30 04:41:18;;;;;;;2.20;0.30;;;14.90;72.10;;;;;;4995289;28;20027;-76
2021/06/30 04:43:44;;;;;;;1.27;0.77;;;14.90;71.40;;;;;;4995173;28;20508;-76
2021/06/30 04:46:10;;;;;;;1.48;0.28;;;15.00;71.00;;;;;;4994728;28;20022;-76
2021/06/30 04:48:36;;;;;;;0.30;0.30;;;15.00;70.90;;;;;;4995085;28;20037;-75
2021/06/30 04:51:03;;;;;;;0.40;0.30;;;15.00;71.30;;;;;;4995240;28;20034;-74
2021/06/30 04:53:28;;;;;;;0.30;0.28;;;15.10;70.50;;;;;;4994763;28;20042;-70
2021/06/30 04:55:54;;;;;;;3.50;0.80;;;15.10;70.70;;;;;;4994906;28;20034;-74
2021/06/30 04:58:23;;;;;;;0.93;0.30;;;15.10;70.50;;;;;;4994535;28;20042;-72
2021/06/30 05:00:53;;;;;;;6.13;0.45;;;15.20;70.90;;;;;;4994644;28;20359;-74
2021/06/30 05:03:18;;;;;;;;;;;15.40;72.20;;;;;;4995211;28;20034;-72
2021/06/30 05:05:44;;;;;;;3.40;0.20;;;15.40;72.80;;;;;;4994798;28;20388;-73
2021/06/30 05:08:10;;;;;;;0.73;0.30;;;15.40;70.60;;;;;;4994260;28;20128;-73
2021/06/30 05:10:36;;;;;;;2.10;0.30;;;15.40;70.40;;;;;;4994844;28;20030;-73
2021/06/30 05:13:02;;;;;;;0.35;0.32;;;15.50;70.40;;;;;;4994375;28;20383;-74
2021/06/30 05:15:28;;;;;;;0.60;0.20;;;15.50;71.40;;;;;;4994796;28;20486;-73
2021/06/30 05:17:54;;;;;;;1.40;0.20;;;15.60;71.20;;;;;;4994520;28;20034;-73
2021/06/30 05:20:19;;;;;;;1.15;0.25;;;15.60;70.90;;;;;;4993976;28;20076;-74
2021/06/30 05:22:45;;;;;;;3.33;0.38;;;15.60;69.80;;;;;;4994145;28;20427;-73
2021/06/30 05:25:12;;;;;;;1.75;0.30;;;15.60;71.50;;;;;;4976576;28;20023;-74
2021/06/30 05:27:38;;;;;;;0.30;0.20;;;15.70;71.60;;;;;;4994400;28;20534;-71
2021/06/30 05:30:05;;;;;;;0.20;0.10;;;15.70;70.00;;;;;;4994084;28;20026;-71
2021/06/30 05:32:30;;;;;;;7.63;0.88;;;15.70;71.20;;;;;;4994551;28;20026;-73
2021/06/30 05:34:56;;;;;;;0.20;0.20;;;15.90;71.20;;;;;;4994173;28;20525;-70
2021/06/30 05:37:22;;;;;;;2.72;0.40;;;16.00;70.70;;;;;;4994064;28;20030;-70
2021/06/30 05:39:47;;;;;;;3.50;1.17;;;16.10;69.10;;;;;;4994426;28;20085;-70
2021/06/30 05:42:13;;;;;;;0.20;0.20;;;16.00;68.50;;;;;;4994061;28;20565;-70
2021/06/30 05:44:39;;;;;;;0.82;0.20;;;16.10;68.70;;;;;;4993992;28;20500;-70
2021/06/30 05:47:05;;;;;;;0.20;0.20;;;16.00;68.40;;;;;;4993920;28;20100;-70
2021/06/30 05:49:31;;;;;;;0.52;0.20;;;16.10;69.20;;;;;;4993941;28;20474;-70
2021/06/30 05:51:56;;;;;;;1.75;0.20;;;16.20;68.00;;;;;;4993934;28;20042;-70
2021/06/30 05:54:22;;;;;;;1.60;0.10;;;16.30;67.30;;;;;;4994084;28;20366;-70
2021/06/30 05:56:48;;;;;;;1.52;0.20;;;16.30;67.00;;;;;;4993978;28;20109;-70
2021/06/30 05:59:14;;;;;;;2.35;0.20;;;16.30;66.50;;;;;;4993847;28;20033;-70
2021/06/30 06:01:40;;;;;;;1.88;0.20;;;16.40;66.40;;;;;;4993610;28;20400;-76
2021/06/30 06:04:06;;;;;;;0.10;0.10;;;16.40;65.70;;;;;;4993393;28;20031;-69
2021/06/30 06:06:32;;;;;;;0.10;0.10;;;16.40;65.40;;;;;;4976185;28;20029;-70
2021/06/30 06:08:57;;;;;;;0.80;0.20;;;16.40;65.60;;;;;;4993796;28;20105;-70
2021/06/30 06:11:23;;;;;;;1.92;0.30;;;16.30;66.10;;;;;;4993347;28;20856;-70
2021/06/30 06:13:49;;;;;;;0.20;0.20;;;16.40;66.70;;;;;;4993403;28;20022;-70
2021/06/30 06:16:20;;;;;;;0.10;0.10;;;16.40;65.70;;;;;;4993619;28;20037;-70
2021/06/30 06:18:47;;;;;;;2.20;0.22;;;16.30;65.60;;;;;;4993396;28;20034;-72
2021/06/30 06:21:13;;;;;;;0.20;0.20;;;16.20;66.60;;;;;;4993410;28;20512;-74
2021/06/30 06:23:38;;;;;;;0.10;0.10;;;16.30;66.10;;;;;;4993295;28;20054;-71
2021/06/30 06:26:04;;;;;;;0.50;0.30;;;16.20;66.50;;;;;;4993263;28;20034;-70
2021/06/30 06:28:33;;;;;;;0.20;0.20;;;16.30;67.80;;;;;;4993133;28;20500;-71
2021/06/30 06:31:04;;;;;;;0.20;0.20;;;16.30;67.20;;;;;;4993439;28;20030;-71
2021/06/30 06:33:30;;;;;;;0.20;0.20;;;16.40;66.90;;;;;;4992976;28;20030;-73
2021/06/30 06:35:56;;;;;;;2.28;0.20;;;16.40;67.20;;;;;;4992768;28;20509;-71
2021/06/30 06:38:23;;;;;;;0.20;0.20;;;16.40;66.60;;;;;;4992777;28;20033;-74
2021/06/30 06:40:50;;;;;;;0.65;0.30;;;16.40;66.80;;;;;;4992946;28;20027;-76
2021/06/30 06:43:17;;;;;;;0.13;0.13;;;16.40;65.70;;;;;;4992758;28;20426;-76
2021/06/30 06:45:43;;;;;;;0.55;0.17;;;16.30;66.10;;;;;;4992941;28;20027;-73
2021/06/30 06:48:08;;;;;;;0.10;0.10;;;16.30;66.10;;;;;;4992895;28;20027;-73
2021/06/30 06:50:35;;;;;;;1.10;0.10;;;16.20;67.00;;;;;;4992992;28;20470;-74
2021/06/30 06:53:01;;;;;;;0.70;0.20;;;16.40;68.00;;;;;;4992422;28;20043;-73
2021/06/30 06:55:27;;;;;;;0.10;0.10;;;16.40;66.80;;;;;;4975234;28;20030;-74
2021/06/30 06:57:53;;;;;;;0.10;0.10;;;16.40;66.90;;;;;;4992937;28;20182;-71
2021/06/30 07:00:19;;;;;;;6.20;0.60;;;16.40;66.60;;;;;;4992385;28;20041;-76
2021/06/30 07:02:46;;;;;;;0.35;0.20;;;16.50;66.20;;;;;;4992403;28;20041;-75
2021/06/30 07:05:12;;;;;;;0.50;0.20;;;16.50;66.90;;;;;;4992610;28;20026;-79
2021/06/30 07:07:45;;;;;;;0.50;0.20;;;16.50;66.60;;;;;;4992537;28;20478;-77
2021/06/30 07:10:12;;;;;;;0.20;0.13;;;16.60;65.70;;;;;;4992420;28;20050;-78
2021/06/30 07:12:39;;;;;;;0.43;0.30;;;16.70;66.10;;;;;;4992723;28;20034;-77
2021/06/30 07:15:07;;;;;;;0.63;0.17;;;16.70;65.00;;;;;;4992523;28;20027;-78
2021/06/30 07:17:35;;;;;;;0.60;0.20;;;16.70;65.00;;;;;;4992270;28;20373;-75
2021/06/30 07:20:03;;;;;;;0.52;0.20;;;16.80;64.90;;;;;;4992677;28;20081;-76
2021/06/30 07:22:29;;;;;;;0.52;0.20;;;16.70;64.40;;;;;;4992476;28;20048;-76
2021/06/30 07:24:54;;;;;;;0.10;0.10;;;16.80;65.20;;;;;;4992742;28;20101;-81
2021/06/30 07:27:20;;;;;;;1.55;0.13;;;16.80;65.10;;;;;;4974866;28;20185;-85
2021/06/30 07:29:46;;;;;;;0.85;0.43;;;16.90;65.80;;;;;;4994735;28;20027;-83
2021/06/30 07:32:12;;;;;;;0.20;0.20;;;17.00;66.10;;;;;;4991874;28;20031;-82
2021/06/30 07:34:37;;;;;;;1.10;0.20;;;17.00;64.60;;;;;;4975239;28;20084;-78
2021/06/30 07:37:03;;;;;;;0.35;0.20;;;17.10;65.00;;;;;;4991951;28;20026;-73
2021/06/30 07:39:29;;;;;;;0.20;0.20;;;17.20;64.90;;;;;;4992223;28;20022;-74
2021/06/30 07:41:56;;;;;;;0.90;0.22;;;17.30;64.30;;;;;;4992255;28;20038;-73
2021/06/30 07:44:22;;;;;;;0.28;0.28;;;17.30;63.00;;;;;;4993380;28;20054;-73
2021/06/30 07:46:49;;;;;;;0.10;0.10;;;17.30;63.50;;;;;;4995899;28;20451;-74
2021/06/30 07:49:15;;;;;;;0.10;0.10;;;17.30;63.40;;;;;;4995945;28;20022;-76
2021/06/30 07:51:41;;;;;;;3.80;0.25;;;17.40;64.00;;;;;;4995873;28;20567;-75
2021/06/30 07:54:07;;;;;;;0.13;0.10;;;17.40;64.30;;;;;;4995951;28;20474;-75
2021/06/30 07:56:39;;;;;;;0.10;0.10;;;17.40;64.10;;;;;;4995645;28;20038;-75
2021/06/30 07:59:07;;;;;;;0.40;0.10;;;17.50;64.90;;;;;;4978236;28;20391;-75
2021/06/30 08:01:33;;;;;;;0.57;0.30;;;17.50;65.30;;;;;;4995580;28;20137;-75
2021/06/30 08:04:00;;;;;;;0.38;0.20;;;17.60;65.20;;;;;;4995754;28;20505;-75
2021/06/30 08:06:25;;;;;;;1.08;0.38;;;17.60;64.20;;;;;;4995828;28;20050;-75
2021/06/30 08:08:51;;;;;;;0.20;0.20;;;17.70;63.20;;;;;;4995395;28;20495;-75
2021/06/30 08:11:18;;;;;;;1.85;0.28;;;17.70;62.30;;;;;;4995051;28;20022;-75
2021/06/30 08:13:44;;;;;;;4.35;1.42;;;17.70;61.50;;;;;;4995248;28;20105;-76
2021/06/30 08:16:10;;;;;;;1.45;0.47;;;17.80;61.90;;;;;;4995437;28;20034;-75
2021/06/30 08:18:36;;;;;;;0.70;0.20;;;17.90;60.40;;;;;;4994975;28;20072;-76
2021/06/30 08:21:02;;;;;;;1.05;0.20;;;17.80;59.40;;;;;;4995199;28;20113;-77
2021/06/30 08:23:27;;;;;;;5.05;0.30;;;17.90;60.00;;;;;;4995099;28;20026;-74
2021/06/30 08:25:53;;;;;;;0.45;0.20;;;18.00;60.80;;;;;;4994808;28;20387;-79
2021/06/30 08:28:23;;;;;;;8.63;1.45;;;18.10;62.80;;;;;;4994838;28;20044;-78
2021/06/30 08:30:50;;;;;;;1.98;0.20;;;18.30;60.80;;;;;;4995558;28;20019;-78
2021/06/30 08:33:17;;;;;;;0.30;0.20;;;18.30;60.40;;;;;;4995209;28;20054;-78
2021/06/30 08:35:42;;;;;;;0.88;0.65;;;18.40;59.80;;;;;;4995181;28;20024;-78
2021/06/30 08:38:08;;;;;;;6.97;0.47;;;18.50;60.50;;;;;;4994841;28;20097;-76
2021/06/30 08:40:37;;;;;;;1.80;0.80;;;18.70;65.70;;;;;;4994532;28;20031;-77
2021/06/30 08:43:03;;;;;;;2.38;0.20;;;18.90;60.20;;;;;;4995042;28;20035;-78
2021/06/30 08:45:29;;;;;;;1.13;0.40;;;19.10;56.80;;;;;;4994718;28;20026;-79
2021/06/30 08:47:55;;;;;;;0.15;0.15;;;19.10;56.20;;;;;;4994972;28;20030;-77
2021/06/30 08:50:22;;;;;;;0.68;0.20;;;19.10;54.20;;;;;;4994644;28;20029;-73
2021/06/30 08:52:48;;;;;;;8.85;0.82;;;19.10;54.40;;;;;;4996892;28;20038;-74
2021/06/30 08:55:17;;;;;;;2.45;0.38;;;19.10;54.30;;;;;;4993716;28;20033;-73
2021/06/30 08:57:48;;;;;;;1.05;0.30;;;19.20;53.70;;;;;;4994562;28;20022;-74
2021/06/30 09:00:15;;;;;;;1.60;0.15;;;19.10;53.50;;;;;;4994796;28;20030;-73
2021/06/30 09:02:47;;;;;;;0.95;0.20;;;19.10;54.90;;;;;;4994646;28;20087;-74
2021/06/30 09:05:36;;;;;;;1.52;0.20;;;19.20;53.30;;;;;;4994759;28;20049;-74
2021/06/30 09:08:02;;;;;;;1.37;0.27;;;19.20;53.10;;;;;;4994916;28;20065;-73
2021/06/30 09:10:39;;;;;;;2.60;0.20;;;19.20;53.40;;;;;;4994497;28;20467;-73
2021/06/30 09:13:07;;;;;;;2.90;0.30;;;19.30;53.40;;;;;;4994723;28;20023;-71
2021/06/30 09:15:35;;;;;;;0.13;0.10;;;19.30;52.60;;;;;;4994231;28;20080;-71
2021/06/30 09:18:19;;;;;;;2.70;0.30;;;19.20;52.80;;;;;;4994437;28;20490;-74
2021/06/30 09:20:47;;;;;;;0.17;0.17;;;19.40;54.30;;;;;;4994251;28;20084;-76
2021/06/30 09:23:13;;;;;;;0.20;0.15;;;19.40;52.60;;;;;;4993949;28;20481;-77
2021/06/30 09:25:41;;;;;;;0.20;0.20;;;19.30;53.00;;;;;;4993939;28;20481;-77
2021/06/30 09:28:25;;;;;;;1.60;0.30;;;19.40;54.10;;;;;;4994282;28;20117;-77
2021/06/30 09:30:55;;;;;;;2.60;0.20;;;19.50;51.50;;;;;;4994300;28;20026;-75
2021/06/30 09:33:21;;;;;;;;;;;19.30;50.60;;;;;;4994607;28;20041;-74
2021/06/30 09:35:48;;;;;;;0.47;0.30;;;19.20;50.60;;;;;;4994175;28;19905;-72
2021/06/30 09:38:31;;;;;;;18.20;0.60;;;19.30;51.30;;;;;;4976942;28;20190;-72
2021/06/30 09:40:57;;;;;;;0.40;0.20;;;19.40;49.90;;;;;;4994045;28;20030;-72
2021/06/30 09:43:29;;;;;;;0.15;0.15;;;19.30;49.60;;;;;;4994003;28;20045;-72
2021/06/30 09:46:00;;;;;;;1.85;0.15;;;19.20;49.60;;;;;;4993951;28;20100;-72
2021/06/30 09:48:33;;;;;;;0.55;0.20;;;19.20;50.80;;;;;;4994054;28;20034;-72
2021/06/30 09:51:04;;;;;;;0.10;0.10;;;19.20;49.80;;;;;;4993561;28;20026;-72
2021/06/30 09:53:41;;;;;;;0.60;0.45;;;19.30;50.50;;;;;;4993504;28;20046;-72
2021/06/30 09:56:14;;;;;;;3.38;0.38;;;19.30;50.20;;;;;;4993715;28;20027;-72
2021/06/30 09:58:41;;;;;;;14.32;2.55;;;19.40;51.20;;;;;;4993470;28;20548;-72
2021/06/30 10:01:18;;;;;;;4.45;0.90;;;19.50;50.40;;;;;;4993601;28;20027;-72
2021/06/30 10:03:44;;;;;;;0.20;0.15;;;19.50;50.40;;;;;;4993259;28;20030;-72
2021/06/30 10:06:28;;;;;;;0.80;0.20;;;19.60;51.10;;;;;;4993700;28;20030;-72
2021/06/30 10:08:56;;;;;;;0.55;0.30;;;19.60;52.50;;;;;;4975863;28;20019;-72
2021/06/30 10:11:21;;;;;;;0.95;0.40;;;19.50;52.00;;;;;;4993425;28;20105;-72
2021/06/30 10:13:51;;;;;;;6.30;0.40;;;19.40;52.20;;;;;;4993244;28;20522;-72
2021/06/30 10:16:18;;;;;;;5.35;0.88;;;19.30;52.60;;;;;;4993205;28;20022;-72
2021/06/30 10:18:45;;;;;;;0.30;0.30;;;19.20;52.40;;;;;;4993180;28;20022;-72
2021/06/30 10:21:11;;;;;;;4.72;0.32;;;19.10;52.10;;;;;;4993085;28;20034;-72
2021/06/30 10:23:38;;;;;;;0.52;0.30;;;19.10;52.70;;;;;;4992945;28;20049;-72
2021/06/30 10:26:04;;;;;;;7.15;0.85;;;19.20;52.80;;;;;;4993269;28;20109;-72
2021/06/30 10:28:31;;;;;;;0.22;0.20;;;19.30;53.70;;;;;;4993222;28;20109;-72
2021/06/30 10:30:58;;;;;;;1.17;0.17;;;19.30;52.60;;;;;;4992855;28;20061;-72
2021/06/30 10:33:38;;;;;;;0.20;0.20;;;19.30;51.80;;;;;;4992891;28;20030;-72
2021/06/30 10:36:08;;;;;;;0.88;0.20;;;19.40;51.90;;;;;;4992813;28;20518;-72
2021/06/30 10:38:55;;;;;;;2.42;0.20;;;19.50;51.30;;;;;;4992750;28;20479;-72
2021/06/30 10:41:53;;;;;;;1.83;0.45;;;19.30;50.50;;;;;;4992924;28;20454;-72
2021/06/30 10:44:24;;;;;;;0.77;0.22;;;19.20;51.70;;;;;;4991963;28;20034;-72
2021/06/30 10:46:52;;;;;;;2.47;0.40;;;19.00;51.70;;;;;;4992831;28;20036;-72
2021/06/30 10:49:27;;;;;;;0.88;0.20;;;19.00;52.40;;;;;;4992403;28;20022;-72
2021/06/30 10:51:56;;;;;;;5.38;0.30;;;19.10;52.30;;;;;;4992615;28;20053;-72
2021/06/30 10:54:40;;;;;;;1.33;0.30;;;19.20;51.80;;;;;;4992468;28;20037;-72
2021/06/30 10:57:22;;;;;;;1.85;0.82;;;19.20;51.90;;;;;;4992719;28;20052;-72
2021/06/30 11:00:06;;;;;;;2.97;0.80;;;19.30;52.30;;;;;;4975000;28;20109;-72
2021/06/30 11:02:35;;;;;;;1.70;0.20;;;19.40;52.60;;;;;;4992394;28;20037;-72
2021/06/30 11:05:13;;;;;;;6.28;0.63;;;19.50;52.50;;;;;;4992600;28;20488;-72
2021/06/30 11:07:41;;;;;;;11.68;0.88;;;19.50;52.10;;;;;;4992405;28;20117;-72
2021/06/30 11:10:21;;;;;;;45.92;4.07;;;19.40;52.30;;;;;;4992484;28;20378;-72
2021/06/30 11:12:51;;;;;;;4.45;0.60;;;19.30;52.90;;;;;;4992466;28;20114;-72
2021/06/30 11:15:35;;;;;;;53.20;2.35;;;19.50;52.60;;;;;;4992299;28;20098;-72
2021/06/30 11:18:05;;;;;;;2.42;0.45;;;19.60;52.10;;;;;;4992185;28;20030;-72
2021/06/30 11:20:53;;;;;;;1.80;0.52;;;19.50;52.00;;;;;;4991576;28;20402;-72
2021/06/30 11:23:26;;;;;;;3.75;0.22;;;19.50;52.00;;;;;;4992541;28;20038;-72
2021/06/30 11:25:54;;;;;;;0.50;0.20;;;19.50;51.90;;;;;;4992299;28;20033;-72
2021/06/30 11:28:35;;;;;;;0.20;0.20;;;19.50;51.70;;;;;;4992294;28;20069;-72
2021/06/30 11:31:27;;;;;;;2.72;0.38;;;19.50;51.90;;;;;;4992513;28;20031;-73
2021/06/30 11:34:08;;;;;;;2.15;0.20;;;19.50;52.00;;;;;;4992188;28;20038;-72
2021/06/30 11:36:40;;;;;;;0.70;0.20;;;19.50;51.80;;;;;;4992205;28;20474;-72
2021/06/30 11:39:12;;;;;;;1.50;0.47;;;19.40;52.00;;;;;;4992285;28;20470;-72
2021/06/30 11:41:46;;;;;;;3.20;0.25;;;19.40;51.80;;;;;;4992321;28;20030;-72
2021/06/30 11:44:13;;;;;;;3.03;0.40;;;19.30;51.50;;;;;;4992570;28;20028;-72
2021/06/30 11:46:40;;;;;;;1.50;0.10;;;19.30;52.30;;;;;;4992153;28;20101;-72
2021/06/30 11:49:07;;;;;;;0.43;0.20;;;19.40;52.30;;;;;;4992144;28;20032;-72
2021/06/30 11:51:33;;;;;;;3.13;0.20;;;19.40;51.40;;;;;;4992262;28;20018;-72
2021/06/30 11:53:59;;;;;;;0.22;0.22;;;19.30;51.50;;;;;;4992222;28;20045;-72
2021/06/30 11:56:27;;;;;;;9.63;0.73;;;19.30;51.30;;;;;;4992043;28;20031;-73
2021/06/30 11:58:54;;;;;;;3.72;0.20;;;19.20;51.60;;;;;;4992483;28;20121;-72
2021/06/30 12:01:24;;;;;;;1.55;0.20;;;19.30;52.30;;;;;;4991923;28;20072;-72
2021/06/30 12:04:10;;;;;;;;;;;19.30;51.90;;;;;;4992609;28;20034;-72
2021/06/30 12:06:37;;;;;;;2.83;0.20;;;19.30;51.50;;;;;;4978288;28;20388;-72
2021/06/30 12:09:06;;;;;;;0.10;0.10;;;19.30;52.20;;;;;;4991985;28;20471;-72
2021/06/30 12:11:33;;;;;;;7.20;0.20;;;19.30;51.40;;;;;;4991813;28;20030;-72
2021/06/30 12:14:22;;;;;;;0.55;0.10;;;19.30;52.10;;;;;;4992089;28;20114;-72
2021/06/30 12:16:52;;;;;;;1.60;0.25;;;19.30;50.80;;;;;;4991998;28;20098;-72
2021/06/30 12:19:29;;;;;;;10.48;1.02;;;19.30;50.90;;;;;;4991805;28;20031;-72
2021/06/30 12:21:55;;;;;;;9.07;3.08;;;19.30;51.60;;;;;;4974295;28;20065;-72
2021/06/30 12:24:22;;;;;;;4.05;1.40;;;19.50;51.00;;;;;;4991685;28;20054;-72
2021/06/30 12:27:09;;;;;;;9.63;2.33;;;19.50;50.30;;;;;;4991619;28;20391;-72
2021/06/30 12:29:39;;;;;;;36.35;4.55;;;19.30;50.70;;;;;;4991553;28;20122;-72
2021/06/30 12:32:10;;;;;;;32.42;1.90;;;19.40;50.60;;;;;;4995181;28;20105;-72
2021/06/30 12:34:37;;;;;;;4.20;0.32;;;19.40;50.60;;;;;;4995162;28;20033;-72
2021/06/30 12:37:03;;;;;;;1.52;0.20;;;19.40;50.50;;;;;;4995263;28;20091;-72
2021/06/30 12:39:31;;;;;;;2.28;0.20;;;19.50;50.90;;;;;;4994974;28;20038;-72
2021/06/30 12:42:00;;;;;;;0.10;0.10;;;19.50;51.10;;;;;;4994949;28;20513;-72
2021/06/30 12:44:28;;;;;;;2.55;0.28;;;19.60;50.10;;;;;;4994944;28;20021;-72
2021/06/30 12:47:13;;;;;;;8.88;3.15;;;19.50;50.30;;;;;;4995384;28;20397;-72
2021/06/30 12:49:41;;;;;;;3.63;1.20;;;19.60;50.10;;;;;;4994801;28;20498;-72
2021/06/30 12:52:20;;;;;;;12.82;1.67;;;19.60;50.90;;;;;;4994854;28;20042;-72
2021/06/30 12:55:11;;;;;;;5.07;2.13;;;19.70;50.00;;;;;;4994616;28;20390;-72
2021/06/30 12:57:56;;;;;;;13.10;1.60;;;19.70;50.00;;;;;;4994457;28;20528;-72
2021/06/30 13:00:24;;;;;;;17.13;1.20;;;19.70;49.80;;;;;;4994385;28;20496;-72
2021/06/30 13:03:13;;;;;;;10.80;1.85;;;19.70;49.90;;;;;;4994502;28;20120;-72
2021/06/30 13:05:39;;;;;;;0.70;0.22;;;19.70;49.90;;;;;;4994743;28;20019;-72
2021/06/30 13:08:05;;;;;;;7.88;1.20;;;19.70;49.40;;;;;;4994627;28;20560;-72
2021/06/30 13:10:31;;;;;;;1.13;0.22;;;19.60;49.60;;;;;;4994605;28;20030;-72
2021/06/30 13:13:09;;;;;;;4.78;0.90;;;19.60;49.10;;;;;;4994765;28;20049;-72
2021/06/30 13:15:35;;;;;;;52.78;2.10;;;19.50;49.30;;;;;;4994224;28;20030;-72
2021/06/30 13:18:14;;;;;;;6.70;1.60;;;19.40;49.40;;;;;;4994313;28;20030;-72
2021/06/30 13:20:40;;;;;;;2.13;0.30;;;19.40;49.30;;;;;;4994207;28;20536;-72
2021/06/30 13:23:06;;;;;;;7.80;0.82;;;19.40;49.20;;;;;;4994198;28;20369;-72
2021/06/30 13:25:58;;;;;;;8.25;1.00;;;19.40;49.00;;;;;;4994309;28;20032;-72
2021/06/30 13:29:23;;;;;;;5.18;0.70;;;19.50;49.80;;;;;;4994554;28;20097;-72
2021/06/30 13:34:24;;;;;;;4.30;0.30;;;19.50;49.20;;;;;;4994140;28;20080;-72